createdAt,value
2019-05-29T00:00:18.253Z,12.00
2019-05-29T00:02:46.794Z,11.83
2019-05-29T00:05:15.304Z,11.83
2019-05-29T00:07:43.932Z,11.70
2019-05-29T00:10:12.515Z,11.20
2019-05-29T00:12:40.917Z,11.90
2019-05-29T00:15:10.384Z,11.80
2019-05-29T00:17:41.553Z,11.20
2019-05-29T00:20:10.543Z,11.50
2019-05-29T00:22:39.000Z,10.97
2019-05-29T00:25:08.549Z,11.63
2019-05-29T00:27:37.008Z,11.13
2019-05-29T00:30:06.921Z,12.73
2019-05-29T00:32:35.744Z,11.47
2019-05-29T00:35:06.473Z,11.80
2019-05-29T00:37:34.875Z,11.60
2019-05-29T00:40:05.209Z,12.00
2019-05-29T00:42:33.606Z,12.23
2019-05-29T00:45:02.029Z,12.23
2019-05-29T00:47:30.449Z,13.37
2019-05-29T00:49:59.095Z,11.70
2019-05-29T00:52:27.489Z,11.80
2019-05-29T00:54:56.117Z,11.87
2019-05-29T00:57:24.749Z,11.40
2019-05-29T00:59:53.204Z,12.03
2019-05-29T01:02:21.826Z,11.07
2019-05-29T01:04:50.232Z,11.80
2019-05-29T01:07:18.622Z,11.50
2019-05-29T01:09:47.026Z,11.60
2019-05-29T01:12:15.476Z,11.07
2019-05-29T01:14:50.024Z,11.90
2019-05-29T01:17:14.177Z,10.67
2019-05-29T01:19:42.563Z,10.77
2019-05-29T01:22:12.243Z,11.13
2019-05-29T01:24:40.668Z,10.73
2019-05-29T01:27:09.091Z,10.73
2019-05-29T01:29:37.491Z,10.50
2019-05-29T01:32:05.921Z,10.30
2019-05-29T01:34:34.305Z,10.07
2019-05-29T01:37:02.711Z,10.77
2019-05-29T01:39:31.405Z,10.93
2019-05-29T01:41:59.815Z,10.73
2019-05-29T01:44:28.201Z,11.60
2019-05-29T01:46:56.606Z,11.20
2019-05-29T01:49:24.988Z,11.57
2019-05-29T01:51:53.403Z,11.60
2019-05-29T01:54:21.797Z,10.33
2019-05-29T01:56:50.204Z,11.40
2019-05-29T01:59:19.682Z,10.63
2019-05-29T02:01:48.275Z,11.27
2019-05-29T02:04:17.834Z,12.13
2019-05-29T02:06:46.272Z,11.83
2019-05-29T02:09:15.871Z,11.83
2019-05-29T02:11:44.251Z,11.07
2019-05-29T02:14:12.647Z,11.60
2019-05-29T02:16:41.061Z,11.60
2019-05-29T02:19:09.452Z,12.07
2019-05-29T02:21:38.072Z,11.70
2019-05-29T02:24:06.481Z,11.60
2019-05-29T02:26:34.882Z,11.90
2019-05-29T02:29:03.349Z,12.00
2019-05-29T02:31:31.767Z,11.40
2019-05-29T02:34:00.409Z,11.53
2019-05-29T02:36:28.810Z,11.70
2019-05-29T02:38:57.194Z,10.90
2019-05-29T02:41:27.934Z,11.13
2019-05-29T02:43:56.198Z,10.37
2019-05-29T02:46:26.510Z,10.20
2019-05-29T02:48:54.719Z,11.50
2019-05-29T02:51:24.250Z,11.47
2019-05-29T02:53:52.723Z,11.07
2019-05-29T02:56:22.942Z,12.23
2019-05-29T02:58:51.497Z,11.10
2019-05-29T03:01:21.554Z,11.20
2019-05-29T03:03:50.526Z,12.23
2019-05-29T03:06:18.962Z,11.13
2019-05-29T03:08:47.848Z,11.53
2019-05-29T03:11:16.242Z,11.70
2019-05-29T03:13:44.705Z,11.20
2019-05-29T03:16:13.451Z,11.93
2019-05-29T03:18:41.807Z,14.43
2019-05-29T03:21:10.217Z,11.83
2019-05-29T03:23:38.628Z,13.20
2019-05-29T03:26:07.102Z,11.97
2019-05-29T03:28:35.483Z,12.40
2019-05-29T03:31:04.423Z,12.67
2019-05-29T03:33:48.264Z,12.63
2019-05-29T03:36:09.793Z,12.83
2019-05-29T03:38:38.648Z,12.43
2019-05-29T03:41:07.068Z,11.90
2019-05-29T03:43:36.136Z,12.37
2019-05-29T03:46:29.198Z,12.30
2019-05-29T03:48:42.004Z,13.30
2019-05-29T03:51:10.718Z,11.77
2019-05-29T03:53:39.406Z,12.20
2019-05-29T03:56:07.799Z,11.77
2019-05-29T03:58:37.769Z,11.67
2019-05-29T04:01:06.329Z,11.50
2019-05-29T04:03:35.691Z,11.90
2019-05-29T04:06:05.524Z,10.70
2019-05-29T04:08:35.523Z,11.87
2019-05-29T04:11:04.089Z,12.40
2019-05-29T04:13:34.107Z,11.67
2019-05-29T04:16:03.697Z,12.30
2019-05-29T04:18:35.815Z,12.90
2019-05-29T04:21:06.238Z,12.00
2019-05-29T04:23:36.289Z,12.23
2019-05-29T04:26:04.878Z,11.87
2019-05-29T04:28:34.878Z,11.43
2019-05-29T04:31:03.594Z,12.30
2019-05-29T04:33:32.605Z,11.07
2019-05-29T04:36:01.735Z,11.93
2019-05-29T04:38:31.157Z,11.63
2019-05-29T04:41:00.212Z,11.90
2019-05-29T04:43:28.902Z,11.50
2019-05-29T04:45:57.748Z,11.80
2019-05-29T04:48:34.015Z,12.93
2019-05-29T04:51:10.835Z,12.67
2019-05-29T04:53:42.916Z,11.57
2019-05-29T04:56:11.035Z,11.50
2019-05-29T04:58:39.443Z,11.73
2019-05-29T05:01:14.890Z,11.57
2019-05-29T05:03:53.843Z,11.43
2019-05-29T05:06:22.291Z,10.73
2019-05-29T05:08:50.687Z,10.33
2019-05-29T05:11:19.095Z,10.33
2019-05-29T05:13:48.541Z,10.87
2019-05-29T05:16:16.979Z,10.30
2019-05-29T05:18:45.864Z,9.30
2019-05-29T05:21:14.590Z,10.20
2019-05-29T05:23:43.544Z,9.57
2019-05-29T05:26:12.125Z,10.10
2019-05-29T05:28:43.615Z,9.63
2019-05-29T05:31:10.994Z,9.43
2019-05-29T05:33:39.378Z,9.00
2019-05-29T05:36:07.773Z,8.70
2019-05-29T05:38:36.808Z,8.33
2019-05-29T05:41:05.319Z,8.37
2019-05-29T05:43:34.653Z,8.27
2019-05-29T05:46:03.263Z,7.97
2019-05-29T05:48:31.655Z,7.40
2019-05-29T05:51:00.035Z,7.77
2019-05-29T05:53:28.423Z,8.20
2019-05-29T05:55:56.804Z,9.57
2019-05-29T05:58:25.206Z,9.13
2019-05-29T06:00:53.585Z,8.17
2019-05-29T06:03:22.229Z,8.00
2019-05-29T06:05:50.653Z,7.93
2019-05-29T06:08:19.282Z,8.43
2019-05-29T06:10:50.606Z,8.00
2019-05-29T06:13:17.748Z,9.63
2019-05-29T06:15:46.138Z,8.00
2019-05-29T06:18:20.966Z,8.20
2019-05-29T06:20:44.955Z,7.00
2019-05-29T06:23:13.325Z,7.63
2019-05-29T06:25:42.446Z,8.10
2019-05-29T06:28:11.826Z,7.73
2019-05-29T06:30:41.247Z,8.20
2019-05-29T06:33:10.357Z,8.43
2019-05-29T06:35:39.732Z,7.50
2019-05-29T06:38:08.396Z,8.30
2019-05-29T06:40:45.024Z,8.30
2019-05-29T06:43:25.022Z,6.93
2019-05-29T06:45:54.566Z,7.37
2019-05-29T06:48:42.765Z,7.23
2019-05-29T06:50:59.900Z,6.83
2019-05-29T06:53:28.282Z,7.80
2019-05-29T06:55:58.080Z,7.47
2019-05-29T06:58:26.823Z,7.37
2019-05-29T07:00:55.574Z,6.57
2019-05-29T07:03:24.117Z,6.70
2019-05-29T07:05:53.086Z,7.60
2019-05-29T07:08:37.648Z,6.80
2019-05-29T07:10:51.949Z,7.00
2019-05-29T07:13:20.337Z,6.83
2019-05-29T07:15:48.776Z,7.47
2019-05-29T07:18:17.160Z,7.20
2019-05-29T07:20:45.590Z,6.50
2019-05-29T07:23:13.973Z,6.90
2019-05-29T07:25:43.035Z,6.70
2019-05-29T07:28:11.554Z,6.63
2019-05-29T07:30:42.766Z,6.10
2019-05-29T07:33:10.036Z,6.10
2019-05-29T07:35:39.264Z,5.50
2019-05-29T07:38:07.774Z,5.40
2019-05-29T07:40:36.173Z,5.70
2019-05-29T07:43:04.570Z,6.00
2019-05-29T07:45:33.018Z,5.30
2019-05-29T07:48:01.443Z,6.10
2019-05-29T07:50:30.111Z,5.80
2019-05-29T07:52:58.576Z,5.93
2019-05-29T07:55:26.976Z,6.30
2019-05-29T07:57:55.557Z,5.50
2019-05-29T08:00:34.722Z,5.40
2019-05-29T08:02:54.143Z,5.80
2019-05-29T08:05:22.527Z,5.70
2019-05-29T08:07:51.188Z,5.60
2019-05-29T08:10:21.685Z,5.20
2019-05-29T08:12:54.438Z,5.57
2019-05-29T08:15:20.428Z,5.67
2019-05-29T08:17:50.154Z,6.07
2019-05-29T08:20:18.962Z,5.30
2019-05-29T08:22:48.548Z,5.60
2019-05-29T08:25:29.932Z,5.50
2019-05-29T08:27:58.304Z,6.30
2019-05-29T08:30:26.759Z,5.70
2019-05-29T08:32:55.435Z,5.27
2019-05-29T08:35:24.127Z,5.70
2019-05-29T08:37:52.520Z,4.90
2019-05-29T08:40:21.508Z,5.20
2019-05-29T08:42:49.908Z,5.27
2019-05-29T08:45:18.896Z,5.03
2019-05-29T08:47:47.804Z,5.40
2019-05-29T08:50:18.499Z,5.03
2019-05-29T08:52:46.521Z,5.30
2019-05-29T08:55:15.050Z,5.33
2019-05-29T08:57:44.246Z,5.13
2019-05-29T09:00:13.654Z,4.80
2019-05-29T09:02:42.589Z,5.00
2019-05-29T09:05:11.486Z,4.90
2019-05-29T09:07:40.273Z,4.53
2019-05-29T09:10:09.101Z,5.20
2019-05-29T09:12:37.492Z,4.80
2019-05-29T09:15:10.236Z,4.70
2019-05-29T09:17:39.097Z,4.90
2019-05-29T09:20:25.505Z,5.27
2019-05-29T09:22:38.830Z,4.70
2019-05-29T09:25:07.795Z,4.80
2019-05-29T09:27:36.172Z,5.83
2019-05-29T09:30:06.189Z,5.03
2019-05-29T09:32:49.623Z,5.20
2019-05-29T09:35:05.664Z,5.70
2019-05-29T09:37:34.091Z,4.90
2019-05-29T09:40:02.471Z,5.00
2019-05-29T09:42:30.853Z,5.13
2019-05-29T09:44:59.528Z,4.87
2019-05-29T09:47:27.954Z,4.80
2019-05-29T09:49:56.338Z,4.87
2019-05-29T09:52:24.720Z,5.00
2019-05-29T09:54:54.614Z,5.03
2019-05-29T09:57:23.088Z,5.17
2019-05-29T09:59:53.841Z,6.00
2019-05-29T10:02:21.921Z,5.47
2019-05-29T10:04:50.328Z,4.90
2019-05-29T10:07:18.950Z,5.30
2019-05-29T10:09:47.333Z,5.07
2019-05-29T10:12:15.724Z,5.60
2019-05-29T10:14:44.123Z,4.93
2019-05-29T10:17:13.347Z,5.20
2019-05-29T10:19:41.816Z,5.10
2019-05-29T10:22:10.491Z,5.73
2019-05-29T10:24:38.895Z,5.50
2019-05-29T10:27:07.261Z,6.03
2019-05-29T10:29:35.649Z,5.70
2019-05-29T10:32:04.101Z,5.97
2019-05-29T10:34:32.494Z,6.10
2019-05-29T10:37:00.878Z,6.20
2019-05-29T10:39:29.523Z,5.40
2019-05-29T10:41:57.976Z,6.97
2019-05-29T10:44:26.662Z,5.93
2019-05-29T10:46:56.588Z,6.57
2019-05-29T10:49:25.652Z,6.37
2019-05-29T10:52:16.658Z,7.10
2019-05-29T10:54:41.071Z,7.37
2019-05-29T10:57:09.484Z,6.60
2019-05-29T10:59:37.870Z,7.10
2019-05-29T11:02:06.717Z,7.70
2019-05-29T11:04:35.113Z,7.87
2019-05-29T11:07:03.521Z,8.10
2019-05-29T11:09:44.100Z,7.30
2019-05-29T11:12:02.065Z,7.70
2019-05-29T11:14:30.462Z,7.40
2019-05-29T11:16:59.121Z,7.60
2019-05-29T11:19:27.493Z,7.83
2019-05-29T11:22:00.964Z,7.90
2019-05-29T11:24:26.021Z,7.90
2019-05-29T11:26:54.771Z,8.67
2019-05-29T11:29:23.186Z,8.00
2019-05-29T11:31:53.220Z,8.00
2019-05-29T11:34:21.783Z,8.53
2019-05-29T11:36:50.495Z,8.43
2019-05-29T11:39:18.884Z,8.10
2019-05-29T11:41:47.268Z,7.90
2019-05-29T11:44:15.681Z,8.77
2019-05-29T11:46:44.430Z,8.00
2019-05-29T11:49:12.802Z,8.73
2019-05-29T11:51:44.239Z,8.17
2019-05-29T11:54:11.604Z,8.10
2019-05-29T11:56:40.005Z,8.27
2019-05-29T11:59:08.388Z,7.40
2019-05-29T12:01:49.664Z,7.70
2019-05-29T12:04:23.116Z,8.40
2019-05-29T12:06:37.047Z,7.83
2019-05-29T12:09:08.336Z,6.60
2019-05-29T12:11:36.770Z,7.40
2019-05-29T12:14:05.559Z,7.50
2019-05-29T12:16:34.224Z,7.27
2019-05-29T12:19:02.603Z,7.30
2019-05-29T12:21:30.985Z,8.03
2019-05-29T12:24:02.563Z,7.03
2019-05-29T12:26:31.179Z,6.20
2019-05-29T12:29:08.444Z,6.20
2019-05-29T12:31:29.785Z,6.03
2019-05-29T12:34:04.633Z,6.70
2019-05-29T12:36:28.346Z,6.60
2019-05-29T12:38:57.842Z,7.33
2019-05-29T12:41:26.685Z,6.90
2019-05-29T12:43:55.315Z,7.30
2019-05-29T12:46:24.028Z,6.43
2019-05-29T12:48:53.430Z,7.10
2019-05-29T12:51:21.970Z,7.00
2019-05-29T12:53:50.383Z,5.80
2019-05-29T12:56:19.098Z,6.57
2019-05-29T12:58:47.479Z,6.93
2019-05-29T13:01:15.873Z,6.67
2019-05-29T13:03:45.949Z,7.07
2019-05-29T13:06:16.173Z,6.33
2019-05-29T13:08:44.574Z,5.43
2019-05-29T13:11:12.962Z,6.77
2019-05-29T13:13:41.425Z,6.70
2019-05-29T13:16:09.747Z,7.00
2019-05-29T13:18:38.137Z,6.50
2019-05-29T13:21:06.548Z,6.53
2019-05-29T13:23:44.736Z,6.93
2019-05-29T13:26:05.752Z,6.97
2019-05-29T13:28:34.435Z,5.60
2019-05-29T13:31:04.602Z,6.20
2019-05-29T13:33:32.934Z,6.47
2019-05-29T13:36:02.223Z,6.27
2019-05-29T13:38:30.739Z,6.07
2019-05-29T13:41:00.399Z,5.90
2019-05-29T13:43:28.822Z,6.20
2019-05-29T13:45:58.363Z,6.40
2019-05-29T13:48:26.886Z,6.50
2019-05-29T13:50:55.261Z,6.33
2019-05-29T13:53:23.664Z,6.00
2019-05-29T13:55:52.078Z,7.37
2019-05-29T13:58:20.463Z,6.20
2019-05-29T14:00:48.859Z,6.53
2019-05-29T14:03:17.521Z,7.13
2019-05-29T14:05:45.991Z,6.40
2019-05-29T14:08:14.383Z,5.77
2019-05-29T14:10:43.086Z,6.10
2019-05-29T14:13:11.488Z,6.30
2019-05-29T14:15:39.891Z,7.00
2019-05-29T14:18:09.105Z,6.60
2019-05-29T14:20:37.601Z,6.43
2019-05-29T14:23:07.351Z,6.77
2019-05-29T14:25:36.066Z,5.90
2019-05-29T14:28:04.595Z,6.10
2019-05-29T14:30:32.980Z,6.40
2019-05-29T14:33:02.316Z,6.43
2019-05-29T14:35:31.108Z,6.40
2019-05-29T14:37:59.541Z,8.30
2019-05-29T14:40:27.927Z,7.10
2019-05-29T14:42:56.391Z,7.13
2019-05-29T14:45:24.880Z,6.87
2019-05-29T14:47:53.489Z,7.90
2019-05-29T14:50:21.959Z,7.60
2019-05-29T14:52:50.361Z,7.30
2019-05-29T14:55:19.102Z,7.27
2019-05-29T14:57:47.739Z,7.00
2019-05-29T15:00:24.746Z,7.33
2019-05-29T15:02:46.878Z,7.30
2019-05-29T15:05:15.801Z,6.80
2019-05-29T15:07:44.438Z,7.20
2019-05-29T15:10:25.138Z,6.90
2019-05-29T15:12:43.142Z,6.20
2019-05-29T15:15:16.234Z,7.57
2019-05-29T15:17:43.390Z,6.50
2019-05-29T15:20:16.148Z,6.27
2019-05-29T15:22:43.500Z,6.90
2019-05-29T15:25:21.083Z,6.93
2019-05-29T15:27:42.685Z,7.17
2019-05-29T15:30:16.120Z,6.70
2019-05-29T15:32:42.099Z,7.00
2019-05-29T15:35:14.856Z,7.40
2019-05-29T15:37:41.811Z,7.00
2019-05-29T15:40:11.164Z,6.70
2019-05-29T15:42:39.520Z,7.00
2019-05-29T15:45:09.905Z,6.90
2019-05-29T15:47:38.320Z,7.30
2019-05-29T15:50:09.276Z,6.40
2019-05-29T15:52:37.794Z,7.20
2019-05-29T15:55:23.536Z,6.33
2019-05-29T15:57:38.787Z,7.20
2019-05-29T16:00:11.697Z,6.90
2019-05-29T16:02:40.146Z,7.30
2019-05-29T16:05:09.174Z,7.63
2019-05-29T16:07:37.562Z,5.87
2019-05-29T16:10:08.237Z,7.80
2019-05-29T16:12:36.665Z,6.57
2019-05-29T16:15:09.187Z,6.23
2019-05-29T16:17:37.577Z,6.40
2019-05-29T16:20:10.382Z,6.37
2019-05-29T16:22:38.923Z,6.53
2019-05-29T16:25:07.845Z,6.50
2019-05-29T16:27:36.241Z,7.07
2019-05-29T16:30:07.287Z,6.30
2019-05-29T16:32:35.934Z,6.90
2019-05-29T16:35:06.992Z,6.47
2019-05-29T16:37:35.374Z,6.23
2019-05-29T16:40:05.442Z,6.20
2019-05-29T16:42:34.106Z,6.73
2019-05-29T16:45:02.528Z,6.87
2019-05-29T16:47:30.947Z,6.70
2019-05-29T16:49:59.568Z,6.57
2019-05-29T16:52:27.972Z,6.50
2019-05-29T16:54:56.385Z,6.90
2019-05-29T16:57:25.017Z,6.23
2019-05-29T16:59:53.413Z,6.43
2019-05-29T17:02:22.133Z,6.50
2019-05-29T17:04:50.793Z,6.40
2019-05-29T17:07:20.085Z,6.27
2019-05-29T17:09:48.686Z,6.10
2019-05-29T17:12:18.174Z,6.73
2019-05-29T17:14:46.848Z,7.40
2019-05-29T17:17:16.496Z,6.20
2019-05-29T17:19:45.474Z,7.00
2019-05-29T17:22:14.590Z,6.63
2019-05-29T17:24:43.185Z,7.07
2019-05-29T17:27:11.558Z,6.60
2019-05-29T17:29:40.189Z,6.10
2019-05-29T17:32:08.600Z,6.50
2019-05-29T17:34:36.995Z,6.23
2019-05-29T17:37:05.474Z,6.20
2019-05-29T17:39:34.185Z,6.03
2019-05-29T17:42:02.583Z,6.40
2019-05-29T17:44:31.259Z,5.37
2019-05-29T17:46:59.661Z,5.33
2019-05-29T17:49:34.118Z,5.90
2019-05-29T17:51:58.217Z,6.20
2019-05-29T17:54:26.618Z,6.53
2019-05-29T17:56:55.082Z,6.13
2019-05-29T17:59:24.115Z,6.30
2019-05-29T18:01:52.611Z,6.90
2019-05-29T18:04:22.605Z,6.77
2019-05-29T18:06:51.192Z,6.47
2019-05-29T18:09:23.800Z,5.80
2019-05-29T18:11:49.734Z,6.27
2019-05-29T18:14:19.195Z,6.20
2019-05-29T18:16:47.915Z,6.80
2019-05-29T18:19:17.514Z,5.87
2019-05-29T18:21:46.526Z,6.13
2019-05-29T18:24:15.171Z,6.00
2019-05-29T18:26:47.169Z,6.57
2019-05-29T18:29:13.923Z,5.97
2019-05-29T18:31:42.342Z,5.03
2019-05-29T18:34:10.741Z,5.33
2019-05-29T18:36:39.437Z,5.23
2019-05-29T18:39:08.781Z,6.07
2019-05-29T18:41:37.412Z,6.47
2019-05-29T18:44:05.941Z,6.20
2019-05-29T18:46:37.943Z,5.73
2019-05-29T18:49:04.615Z,6.00
2019-05-29T18:51:33.269Z,5.63
2019-05-29T18:54:01.676Z,5.80
2019-05-29T18:56:30.645Z,5.50
2019-05-29T18:58:59.320Z,6.50
2019-05-29T19:01:27.703Z,6.00
2019-05-29T19:03:56.089Z,6.20
2019-05-29T19:06:25.571Z,5.80
2019-05-29T19:08:54.064Z,6.07
2019-05-29T19:11:23.703Z,5.87
2019-05-29T19:13:52.596Z,6.53
2019-05-29T19:16:21.813Z,6.43
2019-05-29T19:18:50.353Z,7.40
2019-05-29T19:21:18.763Z,7.30
2019-05-29T19:23:47.132Z,7.03
2019-05-29T19:26:15.519Z,7.17
2019-05-29T19:28:44.225Z,7.20
2019-05-29T19:31:12.610Z,6.00
2019-05-29T19:33:41.268Z,6.50
2019-05-29T19:36:09.974Z,6.20
2019-05-29T19:38:44.647Z,6.30
2019-05-29T19:41:13.312Z,6.73
2019-05-29T19:43:42.008Z,7.57
2019-05-29T19:46:10.668Z,9.33
2019-05-29T19:48:39.111Z,10.20
2019-05-29T19:51:07.582Z,10.03
2019-05-29T19:53:35.968Z,9.80
2019-05-29T19:56:04.585Z,9.97
2019-05-29T19:58:33.902Z,8.50
2019-05-29T20:01:02.703Z,7.90
2019-05-29T20:03:31.080Z,8.70
2019-05-29T20:05:59.452Z,8.53
2019-05-29T20:08:32.586Z,8.30
2019-05-29T20:10:58.613Z,8.73
2019-05-29T20:13:27.630Z,7.60
2019-05-29T20:15:56.028Z,8.10
2019-05-29T20:18:24.393Z,7.30
2019-05-29T20:20:52.774Z,8.37
2019-05-29T20:23:21.426Z,8.10
2019-05-29T20:25:49.815Z,9.40
2019-05-29T20:28:18.217Z,9.77
2019-05-29T20:30:46.596Z,9.60
2019-05-29T20:33:15.180Z,9.37
2019-05-29T20:35:43.596Z,8.90
2019-05-29T20:38:12.051Z,8.00
2019-05-29T20:40:41.374Z,7.30
2019-05-29T20:43:09.860Z,8.07
2019-05-29T20:45:39.746Z,7.50
2019-05-29T20:48:08.295Z,7.83
2019-05-29T20:50:37.088Z,7.10
2019-05-29T20:53:05.590Z,7.27
2019-05-29T20:55:33.976Z,7.00
2019-05-29T20:58:02.643Z,7.87
2019-05-29T21:00:31.933Z,7.33
2019-05-29T21:03:00.341Z,7.30
2019-05-29T21:05:28.731Z,7.00
2019-05-29T21:07:57.126Z,6.70
2019-05-29T21:10:25.503Z,7.20
2019-05-29T21:12:53.918Z,7.50
2019-05-29T21:15:22.340Z,7.13
2019-05-29T21:17:50.829Z,7.10
2019-05-29T21:20:19.362Z,7.27
2019-05-29T21:22:47.754Z,7.43
2019-05-29T21:25:19.093Z,6.57
2019-05-29T21:27:49.096Z,7.00
2019-05-29T21:30:19.599Z,7.13
2019-05-29T21:32:48.013Z,7.93
2019-05-29T21:35:16.680Z,7.23
2019-05-29T21:37:46.520Z,7.70
2019-05-29T21:40:15.289Z,7.50
2019-05-29T21:42:44.867Z,7.93
2019-05-29T21:45:14.198Z,7.93
2019-05-29T21:47:43.543Z,7.40
2019-05-29T21:50:12.453Z,7.77
2019-05-29T21:52:41.492Z,7.90
2019-05-29T21:55:11.870Z,8.00
2019-05-29T21:57:43.923Z,8.10
2019-05-29T22:00:16.320Z,8.13
2019-05-29T22:02:44.780Z,7.80
2019-05-29T22:05:13.478Z,8.43
2019-05-29T22:07:42.771Z,8.20
2019-05-29T22:10:12.348Z,8.33
2019-05-29T22:12:40.743Z,8.50
2019-05-29T22:15:09.572Z,8.97
2019-05-29T22:17:37.980Z,8.57
2019-05-29T22:20:07.556Z,8.47
2019-05-29T22:22:35.934Z,8.70
2019-05-29T22:25:06.990Z,8.57
2019-05-29T22:27:35.756Z,9.43
2019-05-29T22:30:05.879Z,9.30
2019-05-29T22:32:34.285Z,9.93
2019-05-29T22:35:02.849Z,9.30
2019-05-29T22:37:31.264Z,8.83
2019-05-29T22:39:59.745Z,9.50
2019-05-29T22:42:28.407Z,9.00
2019-05-29T22:44:57.728Z,9.07
2019-05-29T22:47:26.296Z,9.20
2019-05-29T22:49:55.778Z,9.10
2019-05-29T22:52:24.212Z,10.10
2019-05-29T22:54:53.696Z,9.10
2019-05-29T22:57:22.377Z,8.90
2019-05-29T22:59:51.831Z,9.03
2019-05-29T23:02:20.536Z,8.93
2019-05-29T23:04:49.150Z,9.93
2019-05-29T23:07:17.550Z,9.20
2019-05-29T23:09:45.939Z,9.60
2019-05-29T23:12:14.411Z,9.00
2019-05-29T23:14:42.813Z,9.93
2019-05-29T23:17:11.208Z,9.10
2019-05-29T23:19:39.598Z,9.40
2019-05-29T23:22:08.075Z,9.17
2019-05-29T23:24:36.524Z,8.90
2019-05-29T23:27:05.081Z,9.17
2019-05-29T23:29:47.941Z,9.30
2019-05-29T23:32:03.586Z,8.73
2019-05-29T23:34:32.008Z,9.40
2019-05-29T23:37:01.295Z,9.13
2019-05-29T23:39:29.822Z,9.03
2019-05-29T23:41:59.314Z,8.97
2019-05-29T23:44:27.865Z,8.67
2019-05-29T23:46:57.526Z,8.40
2019-05-29T23:49:26.051Z,8.90
2019-05-29T23:51:55.462Z,8.17
2019-05-29T23:54:23.898Z,8.63
2019-05-29T23:56:53.772Z,9.40
2019-05-29T23:59:22.255Z,8.00
